aviador You're here:

LFKF Decoded Metar

FIGARI in CORSE ISL.
Report Time2018-01-17 05:00:00
UTC Time2018-01-17 05:12:10
Flight Rules mvfr MVFR
Wind270° at 31 Gusting to 46 kt
W.Decomp.*RWY 23: 24.1 kt HW 19.5 kt RCW
W.Rank270° ranks 9
Current wind is above 270° avg. (13.1)
Visibility9999 m
Phenomena:N/A
Clouds:Broken 025 Hf
Broken 031 Hf
Expected CloudBase > 2,000 ft AGL from Temp-Dew spread
Ceiling2,500 ft
Temp15°C (ISA 0)
Dew Point10°C (72% RH)
AAT3.9°C
QNH1007 hPa
Density Alt463 ft
Elevation75 ft
Report Wrong Elevation
Raw Report
LFKF 170500Z AUTO 27031G46KT 9999 BKN025 BKN031 15/10 Q1007
NOSIG=

Extra information for LFKF:More info

Metar Taf Metar & Taf Last 4 Metars F.Rules Stats Wind Profile Meteogram Temp Stats Airport Information Weather charts Add Link Nearby VenuesMetar ALERT Operation Metar Decoded Social comments